createdAt,value
2023-08-23T00:00:01.601Z,5.93
2023-08-23T00:02:06.411Z,6.60
2023-08-23T00:04:09.877Z,7.73
2023-08-23T00:06:13.186Z,7.70
2023-08-23T00:08:16.642Z,6.37
2023-08-23T00:10:20.110Z,6.60
2023-08-23T00:12:22.472Z,5.43
2023-08-23T00:14:26.227Z,6.07
2023-08-23T00:16:29.661Z,6.17
2023-08-23T00:18:34.374Z,7.97
2023-08-23T00:20:37.755Z,5.83
2023-08-23T00:22:41.167Z,6.60
2023-08-23T00:24:44.468Z,7.20
2023-08-23T00:26:48.254Z,5.70
2023-08-23T00:28:51.718Z,9.50
2023-08-23T00:30:56.002Z,9.03
2023-08-23T00:32:59.523Z,6.53
2023-08-23T00:35:04.649Z,7.63
2023-08-23T00:37:08.089Z,6.73
2023-08-23T00:39:11.448Z,6.23
2023-08-23T00:41:14.794Z,6.17
2023-08-23T00:43:18.113Z,7.07
2023-08-23T00:45:21.662Z,9.70
2023-08-23T00:47:25.624Z,9.43
2023-08-23T00:49:35.077Z,7.37
2023-08-23T00:51:43.385Z,6.23
2023-08-23T00:53:48.592Z,6.70
2023-08-23T00:55:52.060Z,6.73
2023-08-23T00:57:55.754Z,6.30
2023-08-23T00:59:59.339Z,6.40
2023-08-23T01:02:01.730Z,6.17
2023-08-23T01:04:06.072Z,5.70
2023-08-23T01:06:21.341Z,5.67
2023-08-23T01:08:36.621Z,5.80
2023-08-23T01:10:48.693Z,8.60
2023-08-23T01:12:57.743Z,7.80
2023-08-23T01:15:06.853Z,9.17
2023-08-23T01:17:13.177Z,5.40
2023-08-23T01:19:45.720Z,6.07
2023-08-23T01:21:55.194Z,6.30
2023-08-23T01:24:04.763Z,5.60
2023-08-23T01:26:08.342Z,5.93
2023-08-23T01:28:11.938Z,6.10
2023-08-23T01:30:18.380Z,6.20
2023-08-23T01:32:33.176Z,8.33
2023-08-23T01:34:42.467Z,5.50
2023-08-23T01:36:47.725Z,5.57
2023-08-23T01:38:52.841Z,6.47
2023-08-23T01:40:58.361Z,5.60
2023-08-23T01:43:02.051Z,6.63
2023-08-23T01:45:06.357Z,5.63
2023-08-23T01:47:09.805Z,5.90
2023-08-23T01:49:13.603Z,6.67
2023-08-23T01:51:17.071Z,5.73
2023-08-23T01:53:20.428Z,6.87
2023-08-23T01:55:25.542Z,7.50
2023-08-23T01:57:31.076Z,7.23
2023-08-23T01:59:34.780Z,6.03
2023-08-23T02:01:38.192Z,6.07
2023-08-23T02:03:41.715Z,6.73
2023-08-23T02:05:45.237Z,9.50
2023-08-23T02:07:48.765Z,6.13
2023-08-23T02:09:52.429Z,5.70
2023-08-23T02:11:55.849Z,7.70
2023-08-23T02:14:01.066Z,6.00
2023-08-23T02:16:07.768Z,6.20
2023-08-23T02:18:12.803Z,6.03
2023-08-23T02:20:17.459Z,6.70
2023-08-23T02:22:20.888Z,5.70
2023-08-23T02:24:24.363Z,5.67
2023-08-23T02:26:28.188Z,5.40
2023-08-23T02:28:31.694Z,5.47
2023-08-23T02:30:36.834Z,7.03
2023-08-23T02:32:40.181Z,5.77
2023-08-23T02:34:42.612Z,6.30
2023-08-23T02:36:45.962Z,6.17
2023-08-23T02:38:50.262Z,6.40
2023-08-23T02:40:56.603Z,9.47
2023-08-23T02:42:59.931Z,6.20
2023-08-23T02:45:03.296Z,6.40
2023-08-23T02:47:08.145Z,7.10
2023-08-23T02:49:11.604Z,8.90
2023-08-23T02:51:15.028Z,7.50
2023-08-23T02:53:18.473Z,7.60
2023-08-23T02:55:21.810Z,9.00
2023-08-23T02:57:25.168Z,8.57
2023-08-23T02:59:28.770Z,7.90
2023-08-23T03:01:32.171Z,6.70
2023-08-23T03:03:36.947Z,7.50
2023-08-23T03:05:40.377Z,33.03
2023-08-23T03:07:42.705Z,8.63
2023-08-23T03:09:47.762Z,6.73
2023-08-23T03:11:51.243Z,6.00
2023-08-23T03:13:53.710Z,7.87
2023-08-23T03:15:57.094Z,6.83
2023-08-23T03:18:00.475Z,6.77
2023-08-23T03:20:05.971Z,8.73
2023-08-23T03:22:10.523Z,6.93
2023-08-23T03:24:14.099Z,6.23
2023-08-23T03:26:17.578Z,6.97
2023-08-23T03:28:22.880Z,5.77
2023-08-23T03:30:26.400Z,5.90
2023-08-23T03:32:29.916Z,5.93
2023-08-23T03:34:34.340Z,6.30
2023-08-23T03:36:39.087Z,7.37
2023-08-23T03:38:42.477Z,11.60
2023-08-23T03:40:45.854Z,8.70
2023-08-23T03:42:49.298Z,6.23
2023-08-23T03:44:52.850Z,7.30
2023-08-23T03:46:58.082Z,6.70
2023-08-23T03:49:01.542Z,13.73
2023-08-23T03:51:05.129Z,7.77
2023-08-23T03:53:09.896Z,8.43
2023-08-23T03:55:14.195Z,7.73
2023-08-23T03:57:18.797Z,8.70
2023-08-23T03:59:22.276Z,9.20
2023-08-23T04:01:25.718Z,8.70
2023-08-23T04:03:29.451Z,10.33
2023-08-23T04:05:41.190Z,7.50
2023-08-23T04:07:44.612Z,9.10
2023-08-23T04:09:49.368Z,8.30
2023-08-23T04:11:52.711Z,6.53
2023-08-23T04:13:55.129Z,7.30
2023-08-23T04:16:03.010Z,6.30
2023-08-23T04:18:07.623Z,7.17
2023-08-23T04:20:14.934Z,7.03
2023-08-23T04:22:18.689Z,6.83
2023-08-23T04:24:22.510Z,8.87
2023-08-23T04:26:27.231Z,8.20
2023-08-23T04:28:29.687Z,6.60
2023-08-23T04:30:33.121Z,8.60
2023-08-23T04:32:36.620Z,6.30
2023-08-23T04:34:39.257Z,7.53
2023-08-23T04:36:42.621Z,8.40
2023-08-23T04:38:46.222Z,8.93
2023-08-23T04:40:50.753Z,8.80
2023-08-23T04:42:55.625Z,9.10
2023-08-23T04:45:01.887Z,8.80
2023-08-23T04:47:06.385Z,10.10
2023-08-23T04:49:10.025Z,10.67
2023-08-23T04:51:14.000Z,9.40
2023-08-23T04:53:17.669Z,10.83
2023-08-23T04:55:21.793Z,9.43
2023-08-23T04:57:25.224Z,7.53
2023-08-23T04:59:29.981Z,7.80
2023-08-23T05:01:33.401Z,6.93
2023-08-23T05:03:37.605Z,8.23
2023-08-23T05:05:42.950Z,6.70
2023-08-23T05:07:46.781Z,7.40
2023-08-23T05:09:50.478Z,8.00
2023-08-23T05:11:53.909Z,8.50
2023-08-23T05:13:57.872Z,8.37
2023-08-23T05:16:02.750Z,7.50
2023-08-23T05:18:06.568Z,9.20
2023-08-23T05:20:11.172Z,8.70
2023-08-23T05:22:14.723Z,9.63
2023-08-23T05:24:17.289Z,8.67
2023-08-23T05:26:20.870Z,10.60
2023-08-23T05:28:24.949Z,10.00
2023-08-23T05:30:28.321Z,7.70
2023-08-23T05:32:34.386Z,9.33
2023-08-23T05:34:38.117Z,7.63
2023-08-23T05:36:41.721Z,9.77
2023-08-23T05:38:48.318Z,10.50
2023-08-23T05:40:52.862Z,8.57
2023-08-23T05:42:56.264Z,9.93
2023-08-23T05:45:00.770Z,9.30
2023-08-23T05:47:04.346Z,9.73
2023-08-23T05:49:09.197Z,10.30
2023-08-23T05:51:12.616Z,9.30
2023-08-23T05:53:19.765Z,9.90
2023-08-23T05:55:22.349Z,11.63
2023-08-23T05:57:25.744Z,8.80
2023-08-23T05:59:29.183Z,7.23
2023-08-23T06:01:32.785Z,7.13
2023-08-23T06:03:36.281Z,7.87
2023-08-23T06:05:42.152Z,11.70
2023-08-23T06:07:46.074Z,11.80
2023-08-23T06:09:48.805Z,13.10
2023-08-23T06:11:52.339Z,12.67
2023-08-23T06:13:57.781Z,14.13
2023-08-23T06:16:01.636Z,13.83
2023-08-23T06:18:04.871Z,10.77
2023-08-23T06:20:09.606Z,11.47
2023-08-23T06:22:14.410Z,12.03
2023-08-23T06:24:17.919Z,12.90
2023-08-23T06:26:21.299Z,18.43
2023-08-23T06:28:24.717Z,14.20
2023-08-23T06:30:28.424Z,12.07
2023-08-23T06:32:31.937Z,16.10
2023-08-23T06:34:36.473Z,17.10
2023-08-23T06:36:39.882Z,18.00
2023-08-23T06:38:44.780Z,18.33
2023-08-23T06:40:48.228Z,22.30
2023-08-23T06:42:51.841Z,20.00
2023-08-23T06:44:57.090Z,16.47
2023-08-23T06:47:00.543Z,18.17
2023-08-23T06:49:05.570Z,18.23
2023-08-23T06:51:08.946Z,18.10
2023-08-23T06:53:12.484Z,16.93
2023-08-23T06:55:17.353Z,20.47
2023-08-23T06:57:22.708Z,19.07
2023-08-23T06:59:26.457Z,21.03
2023-08-23T07:01:29.876Z,18.37
2023-08-23T07:03:35.387Z,17.77
2023-08-23T07:05:38.789Z,17.10
2023-08-23T07:07:42.200Z,19.63
2023-08-23T07:09:45.576Z,19.20
2023-08-23T07:11:50.309Z,15.73
2023-08-23T07:13:53.705Z,14.73
2023-08-23T07:15:57.143Z,12.10
2023-08-23T07:18:00.670Z,12.97
2023-08-23T07:20:03.471Z,13.27
2023-08-23T07:22:06.835Z,13.60
2023-08-23T07:24:11.799Z,14.23
2023-08-23T07:26:14.709Z,15.30
2023-08-23T07:28:19.405Z,18.23
2023-08-23T07:30:23.036Z,14.40
2023-08-23T07:32:26.744Z,14.43
2023-08-23T07:34:30.083Z,13.63
2023-08-23T07:36:33.450Z,14.70
2023-08-23T07:38:37.435Z,14.30
2023-08-23T07:40:40.845Z,14.53
2023-08-23T07:42:44.161Z,14.80
2023-08-23T07:44:48.982Z,15.77
2023-08-23T07:46:52.745Z,14.40
2023-08-23T07:48:56.236Z,15.33
2023-08-23T07:51:01.669Z,17.00
2023-08-23T07:53:06.232Z,15.10
2023-08-23T07:55:10.612Z,18.57
2023-08-23T07:57:14.688Z,13.50
2023-08-23T07:59:18.094Z,16.10
2023-08-23T08:01:22.864Z,15.40
2023-08-23T08:03:29.416Z,14.77
2023-08-23T08:05:33.022Z,16.57
2023-08-23T08:07:56.077Z,15.23
2023-08-23T08:09:58.882Z,14.43
2023-08-23T08:12:02.270Z,15.07
2023-08-23T08:14:05.655Z,14.60
2023-08-23T08:16:10.682Z,15.70
2023-08-23T08:18:15.647Z,16.10
2023-08-23T08:20:19.871Z,16.00
2023-08-23T08:22:23.248Z,13.33
2023-08-23T08:24:30.025Z,14.67
2023-08-23T08:26:33.366Z,13.50
2023-08-23T08:28:39.149Z,14.33
2023-08-23T08:30:42.609Z,14.40
2023-08-23T08:32:46.362Z,14.77
2023-08-23T08:34:51.224Z,14.47
2023-08-23T08:36:54.878Z,12.10
2023-08-23T08:38:58.267Z,13.73
2023-08-23T08:41:01.967Z,12.33
2023-08-23T08:43:06.782Z,13.77
2023-08-23T08:45:12.142Z,12.70
2023-08-23T08:47:16.638Z,13.63
2023-08-23T08:49:20.855Z,14.67
2023-08-23T08:51:28.260Z,11.17
2023-08-23T08:53:33.452Z,12.27
2023-08-23T08:55:37.818Z,8.83
2023-08-23T08:57:41.734Z,7.60
2023-08-23T08:59:47.635Z,7.07
2023-08-23T09:01:52.568Z,6.00
2023-08-23T09:03:56.202Z,7.63
2023-08-23T09:05:59.794Z,6.20
2023-08-23T09:08:04.735Z,6.80
2023-08-23T09:10:08.782Z,7.40
2023-08-23T09:12:12.382Z,7.10
2023-08-23T09:14:17.980Z,8.17
2023-08-23T09:16:21.560Z,6.63
2023-08-23T09:18:24.923Z,5.77
2023-08-23T09:20:28.622Z,6.00
2023-08-23T09:22:33.827Z,8.40
2023-08-23T09:24:38.907Z,8.17
2023-08-23T09:26:42.625Z,5.83
2023-08-23T09:28:46.287Z,6.57
2023-08-23T09:30:50.853Z,11.47
2023-08-23T09:32:53.431Z,7.03
2023-08-23T09:34:57.371Z,6.50
2023-08-23T09:37:07.668Z,7.57
2023-08-23T09:39:12.888Z,7.20
2023-08-23T09:41:17.640Z,5.43
2023-08-23T09:43:23.152Z,8.27
2023-08-23T09:45:26.702Z,7.80
2023-08-23T09:47:34.031Z,9.43
2023-08-23T09:49:40.123Z,6.13
2023-08-23T09:51:44.262Z,6.10
2023-08-23T09:53:54.639Z,6.10
2023-08-23T09:56:00.281Z,6.30
2023-08-23T09:58:05.590Z,6.33
2023-08-23T10:00:10.454Z,7.13
2023-08-23T10:02:17.769Z,9.50
2023-08-23T10:04:21.860Z,7.53
2023-08-23T10:06:25.654Z,7.50
2023-08-23T10:08:29.197Z,13.37
2023-08-23T10:10:33.185Z,7.60
2023-08-23T10:12:38.479Z,6.30
2023-08-23T10:14:47.120Z,7.90
2023-08-23T10:16:50.704Z,10.20
2023-08-23T10:18:55.030Z,7.43
2023-08-23T10:20:58.580Z,8.30
2023-08-23T10:23:01.271Z,11.00
2023-08-23T10:25:16.313Z,9.77
2023-08-23T10:27:19.698Z,12.43
2023-08-23T10:29:28.583Z,11.33
2023-08-23T10:31:33.376Z,8.00
2023-08-23T10:33:42.073Z,8.67
2023-08-23T10:35:45.645Z,11.03
2023-08-23T10:37:49.471Z,10.30
2023-08-23T10:39:55.696Z,8.57
2023-08-23T10:41:59.142Z,11.57
2023-08-23T10:44:02.557Z,9.50
2023-08-23T10:46:08.354Z,8.20
2023-08-23T10:48:13.460Z,10.00
2023-08-23T10:50:17.282Z,9.20
2023-08-23T10:52:21.823Z,9.20
2023-08-23T10:54:26.628Z,7.23
2023-08-23T10:56:30.486Z,7.50
2023-08-23T10:58:34.432Z,8.00
2023-08-23T11:00:38.160Z,7.90
2023-08-23T11:02:42.929Z,11.33
2023-08-23T11:04:48.317Z,7.90
2023-08-23T11:06:52.494Z,7.87
2023-08-23T11:08:55.846Z,8.63
2023-08-23T11:10:59.799Z,7.00
2023-08-23T11:13:03.194Z,7.50
2023-08-23T11:15:07.834Z,10.03
2023-08-23T11:17:11.954Z,7.60
2023-08-23T11:19:15.555Z,6.60
2023-08-23T11:21:20.332Z,8.50
2023-08-23T11:23:23.688Z,4.93
2023-08-23T11:25:26.245Z,5.57
2023-08-23T11:27:30.153Z,5.63
2023-08-23T11:29:33.525Z,5.60
2023-08-23T11:31:37.571Z,5.53
2023-08-23T11:33:41.299Z,5.60
2023-08-23T11:35:44.682Z,6.30
2023-08-23T11:37:51.789Z,5.40
2023-08-23T11:39:57.242Z,5.77
2023-08-23T11:42:01.130Z,5.83
2023-08-23T11:44:05.871Z,5.43
2023-08-23T11:46:09.466Z,4.43
2023-08-23T11:48:13.052Z,5.00
2023-08-23T11:50:16.453Z,4.03
2023-08-23T11:52:19.940Z,4.87
2023-08-23T11:54:24.644Z,4.17
2023-08-23T11:56:28.091Z,3.40
2023-08-23T11:58:31.509Z,3.50
2023-08-23T12:00:35.544Z,3.97
2023-08-23T12:02:39.034Z,3.53
2023-08-23T12:04:43.312Z,3.13
2023-08-23T12:06:46.806Z,5.00
2023-08-23T12:08:50.382Z,3.43
2023-08-23T12:10:55.181Z,3.30
2023-08-23T12:12:58.583Z,3.20
2023-08-23T12:15:02.104Z,7.10
2023-08-23T12:17:05.477Z,4.60
2023-08-23T12:19:25.354Z,2.60
2023-08-23T12:21:32.537Z,5.13
2023-08-23T12:23:35.973Z,3.20
2023-08-23T12:25:39.369Z,3.70
2023-08-23T12:27:44.362Z,3.53
2023-08-23T12:29:47.696Z,5.93
2023-08-23T12:31:51.087Z,4.23
2023-08-23T12:33:54.612Z,3.40
2023-08-23T12:35:58.398Z,4.60
2023-08-23T12:38:02.152Z,2.93
2023-08-23T12:40:09.674Z,6.17
2023-08-23T12:42:13.004Z,5.63
2023-08-23T12:44:17.786Z,5.07
2023-08-23T12:46:23.121Z,5.90
2023-08-23T12:48:26.859Z,3.90
2023-08-23T12:50:30.261Z,3.93
2023-08-23T12:52:33.632Z,3.60
2023-08-23T12:54:37.083Z,4.33
2023-08-23T12:56:40.998Z,2.60
2023-08-23T12:58:44.999Z,3.60
2023-08-23T13:00:50.011Z,3.67
2023-08-23T13:02:52.619Z,4.10
2023-08-23T13:04:56.059Z,2.40
2023-08-23T13:06:59.488Z,7.13
2023-08-23T13:09:04.022Z,4.73
2023-08-23T13:11:08.190Z,3.17
2023-08-23T13:13:12.387Z,2.80
2023-08-23T13:15:15.935Z,3.33
2023-08-23T13:17:21.056Z,3.43
2023-08-23T13:19:24.913Z,4.33
2023-08-23T13:21:28.446Z,4.73
2023-08-23T13:23:31.896Z,4.90
2023-08-23T13:25:35.274Z,3.70
2023-08-23T13:27:38.646Z,4.60
2023-08-23T13:29:45.462Z,3.90
2023-08-23T13:31:48.852Z,3.90
2023-08-23T13:33:53.595Z,5.13
2023-08-23T13:35:56.965Z,4.10
2023-08-23T13:38:00.426Z,6.73
2023-08-23T13:40:04.885Z,3.00
2023-08-23T13:42:08.682Z,2.73
2023-08-23T13:44:12.225Z,5.40
2023-08-23T13:46:15.603Z,3.40
2023-08-23T13:48:19.151Z,7.83
2023-08-23T13:50:24.042Z,8.23
2023-08-23T13:52:27.538Z,3.90
2023-08-23T13:54:30.888Z,3.63
2023-08-23T13:56:33.579Z,3.77
2023-08-23T13:58:37.011Z,3.67
2023-08-23T14:00:40.470Z,5.67
2023-08-23T14:02:44.099Z,3.43
2023-08-23T14:04:47.560Z,4.30
2023-08-23T14:06:52.322Z,3.87
2023-08-23T14:08:55.704Z,3.40
2023-08-23T14:10:59.917Z,3.50
2023-08-23T14:13:03.335Z,3.87
2023-08-23T14:15:07.981Z,3.53
2023-08-23T14:17:11.497Z,5.17
2023-08-23T14:19:15.036Z,3.80
2023-08-23T14:21:18.571Z,5.30
2023-08-23T14:23:23.300Z,4.90
2023-08-23T14:25:26.727Z,4.27
2023-08-23T14:27:32.727Z,4.27
2023-08-23T14:29:36.529Z,4.90
2023-08-23T14:31:40.061Z,4.70
2023-08-23T14:33:45.701Z,3.03
2023-08-23T14:35:49.274Z,6.97
2023-08-23T14:37:53.225Z,9.10
2023-08-23T14:39:58.163Z,2.73
2023-08-23T14:42:02.134Z,4.43
2023-08-23T14:44:05.865Z,2.50
2023-08-23T14:46:09.822Z,5.50
2023-08-23T14:48:13.322Z,2.23
2023-08-23T14:50:16.742Z,5.50
2023-08-23T14:52:20.881Z,3.27
2023-08-23T14:54:24.389Z,3.50
2023-08-23T14:56:29.143Z,4.23
2023-08-23T14:58:32.545Z,2.97
2023-08-23T15:00:35.130Z,5.83
2023-08-23T15:02:38.516Z,3.77
2023-08-23T15:04:44.186Z,2.77
2023-08-23T15:06:47.570Z,4.40
2023-08-23T15:08:51.096Z,2.80
2023-08-23T15:10:57.887Z,3.57
2023-08-23T15:13:02.670Z,4.73
2023-08-23T15:15:07.311Z,2.67
2023-08-23T15:17:10.746Z,2.43
2023-08-23T15:19:14.142Z,4.73
2023-08-23T15:21:17.551Z,7.53
2023-08-23T15:23:21.060Z,4.63
2023-08-23T15:25:24.481Z,4.70
2023-08-23T15:27:41.065Z,5.97
2023-08-23T15:30:05.514Z,3.60
2023-08-23T15:32:11.830Z,3.73
2023-08-23T15:34:15.312Z,6.50
2023-08-23T15:36:18.857Z,2.30
2023-08-23T15:38:22.224Z,4.33
2023-08-23T15:40:28.081Z,2.60
2023-08-23T15:42:31.956Z,5.13
2023-08-23T15:44:35.347Z,3.87
2023-08-23T15:46:40.313Z,2.60
2023-08-23T15:48:43.757Z,2.77
2023-08-23T15:50:47.387Z,2.73
2023-08-23T15:52:50.734Z,5.77
2023-08-23T15:54:53.175Z,3.87
2023-08-23T15:56:56.598Z,7.03
2023-08-23T15:59:00.005Z,4.90
2023-08-23T16:01:03.392Z,4.87
2023-08-23T16:03:08.384Z,3.43
2023-08-23T16:05:12.756Z,3.70
2023-08-23T16:07:16.116Z,3.83
2023-08-23T16:09:19.504Z,5.37
2023-08-23T16:11:22.918Z,4.23
2023-08-23T16:13:25.447Z,5.53
2023-08-23T16:15:29.008Z,3.83
2023-08-23T16:17:32.471Z,7.97
2023-08-23T16:19:37.813Z,4.73
2023-08-23T16:21:42.362Z,3.90
2023-08-23T16:23:45.944Z,5.40
2023-08-23T16:25:51.457Z,7.20
2023-08-23T16:27:54.876Z,4.60
2023-08-23T16:29:59.926Z,4.07
2023-08-23T16:32:03.286Z,6.93
2023-08-23T16:34:06.792Z,6.07
2023-08-23T16:36:11.561Z,4.03
2023-08-23T16:38:14.911Z,5.40
2023-08-23T16:40:17.302Z,5.30
2023-08-23T16:42:20.838Z,4.50
2023-08-23T16:44:24.254Z,6.33
2023-08-23T16:46:28.249Z,4.20
2023-08-23T16:48:31.919Z,4.87
2023-08-23T16:50:35.467Z,3.17
2023-08-23T16:52:40.196Z,4.33
2023-08-23T16:54:43.607Z,3.43
2023-08-23T16:56:47.131Z,3.60
2023-08-23T16:58:50.540Z,3.80
2023-08-23T17:00:54.169Z,4.77
2023-08-23T17:02:56.684Z,3.30
2023-08-23T17:05:00.115Z,2.97
2023-08-23T17:07:03.574Z,4.87
2023-08-23T17:09:08.407Z,5.63
2023-08-23T17:11:12.514Z,4.90
2023-08-23T17:13:17.088Z,4.10
2023-08-23T17:15:20.524Z,3.40
2023-08-23T17:17:25.412Z,3.13
2023-08-23T17:19:29.058Z,2.63
2023-08-23T17:21:32.463Z,3.97
2023-08-23T17:23:36.409Z,6.07
2023-08-23T17:25:42.164Z,3.87
2023-08-23T17:27:45.609Z,3.47
2023-08-23T17:29:49.658Z,4.23
2023-08-23T17:31:53.131Z,2.90
2023-08-23T17:33:56.567Z,4.53
2023-08-23T17:35:59.974Z,3.40
2023-08-23T17:38:04.529Z,2.93
2023-08-23T17:40:09.158Z,2.77
2023-08-23T17:42:13.968Z,4.80
2023-08-23T17:44:19.440Z,5.33
2023-08-23T17:46:37.382Z,5.20
2023-08-23T17:48:40.851Z,8.13
2023-08-23T17:50:44.375Z,7.77
2023-08-23T17:52:50.004Z,3.70
2023-08-23T17:54:55.244Z,7.60
2023-08-23T17:56:59.698Z,3.60
2023-08-23T17:59:04.624Z,3.53
2023-08-23T18:01:14.827Z,8.07
2023-08-23T18:03:18.384Z,4.40
2023-08-23T18:05:22.340Z,3.30
2023-08-23T18:07:25.881Z,3.50
2023-08-23T18:09:29.273Z,3.20
2023-08-23T18:11:31.880Z,5.30
2023-08-23T18:13:35.560Z,5.30
2023-08-23T18:15:40.425Z,4.03
2023-08-23T18:17:43.926Z,4.43
2023-08-23T18:19:46.342Z,5.53
2023-08-23T18:21:49.803Z,7.33
2023-08-23T18:23:55.913Z,5.27
2023-08-23T18:25:59.348Z,3.97
2023-08-23T18:28:04.669Z,3.60
2023-08-23T18:30:09.327Z,4.20
2023-08-23T18:32:14.793Z,3.50
2023-08-23T18:34:18.249Z,6.33
2023-08-23T18:36:20.698Z,4.27
2023-08-23T18:38:24.063Z,4.30
2023-08-23T18:40:28.250Z,4.13
2023-08-23T18:42:31.630Z,3.97
2023-08-23T18:44:35.107Z,4.10
2023-08-23T18:46:38.595Z,5.23
2023-08-23T18:48:43.515Z,6.57
2023-08-23T18:50:47.133Z,13.60
2023-08-23T18:52:51.512Z,4.17
2023-08-23T18:54:55.127Z,4.33
2023-08-23T18:56:58.513Z,5.30
2023-08-23T18:59:02.505Z,4.63
2023-08-23T19:01:05.936Z,5.10
2023-08-23T19:03:09.641Z,3.73
2023-08-23T19:05:20.377Z,5.77
2023-08-23T19:07:23.907Z,3.70
2023-08-23T19:09:27.423Z,5.13
2023-08-23T19:11:30.791Z,8.90
2023-08-23T19:13:34.237Z,21.77
2023-08-23T19:15:39.460Z,8.70
2023-08-23T19:17:46.006Z,3.90
2023-08-23T19:19:50.063Z,3.73
2023-08-23T19:21:57.386Z,3.83
2023-08-23T19:24:00.879Z,3.97
2023-08-23T19:26:04.254Z,4.43
2023-08-23T19:28:07.616Z,4.10
2023-08-23T19:30:11.721Z,4.60
2023-08-23T19:32:15.071Z,4.80
2023-08-23T19:34:18.493Z,6.03
2023-08-23T19:36:22.038Z,6.03
2023-08-23T19:38:26.796Z,4.53
2023-08-23T19:40:30.174Z,31.53
2023-08-23T19:42:33.673Z,22.47
2023-08-23T19:44:37.047Z,16.33
2023-08-23T19:46:40.513Z,5.23
2023-08-23T19:48:44.023Z,4.97
2023-08-23T19:50:47.504Z,8.63
2023-08-23T19:52:51.406Z,5.60
2023-08-23T19:54:56.183Z,3.50
2023-08-23T19:56:59.818Z,5.03
2023-08-23T19:59:03.173Z,7.23
2023-08-23T20:01:06.598Z,5.53
2023-08-23T20:03:12.075Z,3.50
2023-08-23T20:05:16.956Z,3.83
2023-08-23T20:07:24.768Z,4.63
2023-08-23T20:09:28.162Z,5.83
2023-08-23T20:11:31.947Z,4.43
2023-08-23T20:13:36.290Z,3.97
2023-08-23T20:15:44.787Z,5.27
2023-08-23T20:17:49.778Z,4.00
2023-08-23T20:19:53.454Z,4.00
2023-08-23T20:21:56.813Z,8.23
2023-08-23T20:24:00.305Z,3.67
2023-08-23T20:26:03.933Z,4.97
2023-08-23T20:28:08.754Z,5.60
2023-08-23T20:30:12.531Z,5.20
2023-08-23T20:32:15.910Z,5.60
2023-08-23T20:34:19.239Z,6.13
2023-08-23T20:36:25.134Z,4.70
2023-08-23T20:38:28.530Z,6.10
2023-08-23T20:40:32.447Z,5.70
2023-08-23T20:42:35.972Z,7.60
2023-08-23T20:44:40.121Z,5.23
2023-08-23T20:46:45.162Z,5.17
2023-08-23T20:48:49.830Z,4.73
2023-08-23T20:50:53.184Z,5.23
2023-08-23T20:52:56.741Z,6.57
2023-08-23T20:54:59.569Z,6.73
2023-08-23T20:57:03.825Z,4.80
2023-08-23T20:59:07.180Z,6.90
2023-08-23T21:01:13.617Z,5.57
2023-08-23T21:03:18.600Z,7.27
2023-08-23T21:05:21.970Z,7.23
2023-08-23T21:07:25.434Z,6.57
2023-08-23T21:09:28.784Z,6.17
2023-08-23T21:11:31.313Z,6.47
2023-08-23T21:13:34.785Z,6.20
2023-08-23T21:15:44.273Z,22.83
2023-08-23T21:17:49.224Z,5.60
2023-08-23T21:19:52.855Z,5.90
2023-08-23T21:21:56.174Z,7.43
2023-08-23T21:23:59.642Z,8.27
2023-08-23T21:26:02.971Z,6.33
2023-08-23T21:28:08.118Z,7.30
2023-08-23T21:30:12.463Z,6.67
2023-08-23T21:32:15.840Z,7.53
2023-08-23T21:34:20.605Z,5.80
2023-08-23T21:36:23.936Z,5.90
2023-08-23T21:38:27.465Z,7.00
2023-08-23T21:40:33.081Z,6.00
2023-08-23T21:42:36.538Z,8.13
2023-08-23T21:44:40.092Z,6.77
2023-08-23T21:46:43.430Z,6.60
2023-08-23T21:48:46.910Z,6.40
2023-08-23T21:50:52.785Z,6.30
2023-08-23T21:52:56.138Z,6.03
2023-08-23T21:54:59.715Z,9.67
2023-08-23T21:57:03.097Z,5.97
2023-08-23T21:59:09.715Z,6.17
2023-08-23T22:01:13.290Z,5.60
2023-08-23T22:03:22.279Z,8.20
2023-08-23T22:05:25.796Z,6.67
2023-08-23T22:07:30.483Z,5.93
2023-08-23T22:09:36.256Z,5.67
2023-08-23T22:11:39.605Z,6.20
2023-08-23T22:13:42.467Z,6.07
2023-08-23T22:15:45.994Z,6.43
2023-08-23T22:17:49.689Z,8.00
2023-08-23T22:19:53.361Z,7.87
2023-08-23T22:21:56.806Z,15.73
2023-08-23T22:24:01.539Z,6.97
2023-08-23T22:26:04.998Z,6.50
2023-08-23T22:28:08.385Z,7.87
2023-08-23T22:30:12.311Z,6.37
2023-08-23T22:32:15.729Z,6.80
2023-08-23T22:34:19.099Z,7.13
2023-08-23T22:36:22.518Z,8.00
2023-08-23T22:38:25.573Z,7.20
2023-08-23T22:40:30.345Z,8.13
2023-08-23T22:42:33.764Z,6.60
2023-08-23T22:44:37.199Z,7.17
2023-08-23T22:46:40.692Z,6.80
2023-08-23T22:48:44.129Z,6.67
2023-08-23T22:50:48.026Z,7.50
2023-08-23T22:52:50.413Z,8.30
2023-08-23T22:54:53.832Z,7.50
2023-08-23T22:56:58.525Z,6.77
2023-08-23T22:59:01.869Z,8.07
2023-08-23T23:01:06.397Z,9.90
2023-08-23T23:03:09.871Z,7.73
2023-08-23T23:05:13.616Z,6.83
2023-08-23T23:07:15.979Z,8.50
2023-08-23T23:09:21.133Z,7.43
2023-08-23T23:11:24.508Z,6.60
2023-08-23T23:13:30.016Z,8.13
2023-08-23T23:15:33.461Z,8.77
2023-08-23T23:17:38.245Z,7.17
2023-08-23T23:19:41.796Z,8.20
2023-08-23T23:21:45.146Z,7.47
2023-08-23T23:23:48.499Z,6.73
2023-08-23T23:25:51.866Z,6.20
2023-08-23T23:27:55.203Z,7.63
2023-08-23T23:29:59.918Z,7.47
2023-08-23T23:32:04.189Z,7.20
2023-08-23T23:34:08.214Z,7.20
2023-08-23T23:36:12.066Z,9.13
2023-08-23T23:38:14.523Z,6.93
2023-08-23T23:40:18.557Z,7.40
2023-08-23T23:42:22.495Z,7.10
2023-08-23T23:44:26.190Z,7.37
2023-08-23T23:46:31.027Z,7.00
2023-08-23T23:48:34.450Z,6.87
2023-08-23T23:50:37.635Z,7.13
2023-08-23T23:52:41.038Z,8.40
2023-08-23T23:54:44.454Z,8.57
2023-08-23T23:56:48.226Z,7.60
2023-08-23T23:58:51.725Z,8.67
